Time;durP1;ratioP1;P1;durP2;ratioP2;P2;SDS_P1;SDS_P2;PMS_P1;PMS_P2;Temp;Humidity;BMP_temperature;BMP_pressure;BME280_temperature;BME280_humidity;BME280_pressure;Samples;Min_cycle;Max_cycle;Signal;HPM_P1;HPM_P2
2021/12/19 00:00:21;;;;;;;;;;;20.30;35.50;;;;;;482201;246;1162;-46
2021/12/19 00:02:40;;;;;;;;;;;20.30;35.40;;;;;;482194;246;2118;-46
2021/12/19 00:04:38;;;;;;;;;;;20.30;35.40;;;;;;481543;247;1542;-47
2021/12/19 00:08:52;;;;;;;;;;;20.20;35.40;;;;;;482248;247;1085;-46
2021/12/19 00:10:53;;;;;;;;;;;20.30;35.50;;;;;;482227;243;1374;-46
2021/12/19 00:12:55;;;;;;;;;;;20.30;35.40;;;;;;482221;246;1197;-46
2021/12/19 00:14:55;;;;;;;;;;;20.20;35.40;;;;;;482365;247;2470;-46
2021/12/19 00:16:56;;;;;;;;;;;20.30;35.40;;;;;;482369;246;1328;-46
2021/12/19 00:18:58;;;;;;;;;;;20.30;35.50;;;;;;482259;246;1053;-46
2021/12/19 00:20:59;;;;;;;;;;;20.30;35.50;;;;;;482229;246;2185;-46
2021/12/19 00:23:00;;;;;;;;;;;20.20;35.40;;;;;;482282;246;1948;-46
2021/12/19 00:25:02;;;;;;;;;;;20.20;35.50;;;;;;482255;246;1032;-46
2021/12/19 00:27:03;;;;;;;;;;;20.30;35.40;;;;;;482503;246;1171;-46
2021/12/19 00:29:04;;;;;;;;;;;20.30;35.50;;;;;;482202;246;1237;-46
2021/12/19 00:31:06;;;;;;;;;;;20.20;35.40;;;;;;482191;246;1190;-46
2021/12/19 00:33:07;;;;;;;;;;;20.20;35.40;;;;;;482388;246;1078;-46
2021/12/19 00:35:08;;;;;;;;;;;20.30;35.50;;;;;;482416;246;1059;-46
2021/12/19 00:37:11;;;;;;;;;;;20.30;35.40;;;;;;482425;246;1317;-46
2021/12/19 00:39:11;;;;;;;;;;;20.20;35.40;;;;;;482251;246;1537;-46
2021/12/19 00:41:13;;;;;;;;;;;20.20;35.50;;;;;;482693;246;2250;-47
2021/12/19 00:43:24;;;;;;;;;;;20.20;35.40;;;;;;482262;246;1102;-46
2021/12/19 00:45:28;;;;;;;;;;;20.20;35.40;;;;;;482524;246;2591;-46
2021/12/19 00:47:26;;;;;;;;;;;20.20;35.40;;;;;;482121;247;2157;-46
2021/12/19 00:49:27;;;;;;;;;;;20.20;35.40;;;;;;482425;246;1323;-46
2021/12/19 00:51:28;;;;;;;;;;;20.30;35.50;;;;;;482224;246;1315;-46
2021/12/19 00:53:30;;;;;;;;;;;20.30;35.50;;;;;;482711;246;1076;-46
2021/12/19 00:55:31;;;;;;;;;;;20.30;35.40;;;;;;482383;246;1207;-46
2021/12/19 00:57:32;;;;;;;;;;;20.20;35.40;;;;;;482252;246;1215;-46
2021/12/19 00:59:34;;;;;;;;;;;20.20;35.40;;;;;;482376;246;1058;-46
2021/12/19 01:01:35;;;;;;;;;;;20.20;35.40;;;;;;482083;246;2256;-46
2021/12/19 01:03:36;;;;;;;;;;;20.40;35.20;;;;;;482389;246;1025;-46
2021/12/19 01:05:38;;;;;;;;;;;20.60;34.80;;;;;;482577;246;1369;-46
2021/12/19 01:07:39;;;;;;;;;;;20.80;34.50;;;;;;482445;246;1213;-46
2021/12/19 01:09:40;;;;;;;;;;;21.00;34.20;;;;;;482284;246;1068;-46
2021/12/19 01:11:41;;;;;;;;;;;21.10;33.90;;;;;;482621;246;1332;-47
2021/12/19 01:13:43;;;;;;;;;;;21.20;33.80;;;;;;482421;246;1085;-47
2021/12/19 01:15:44;;;;;;;;;;;21.30;33.70;;;;;;482248;246;1288;-46
2021/12/19 01:17:45;;;;;;;;;;;21.30;33.50;;;;;;482267;246;1199;-47
2021/12/19 01:19:47;;;;;;;;;;;21.40;33.50;;;;;;482708;246;1077;-46
2021/12/19 01:21:48;;;;;;;;;;;21.40;33.40;;;;;;482471;246;2141;-46
2021/12/19 01:23:49;;;;;;;;;;;21.40;33.30;;;;;;482285;246;1028;-46
2021/12/19 01:25:51;;;;;;;;;;;21.50;33.20;;;;;;482658;246;1235;-46
2021/12/19 01:27:52;;;;;;;;;;;21.50;33.10;;;;;;482688;246;1256;-46
2021/12/19 01:29:53;;;;;;;;;;;21.60;33.10;;;;;;482330;246;1066;-47
2021/12/19 01:31:55;;;;;;;;;;;21.70;33.10;;;;;;482146;246;1310;-47
2021/12/19 01:33:56;;;;;;;;;;;21.70;33.00;;;;;;482375;246;1143;-47
2021/12/19 01:35:57;;;;;;;;;;;21.70;33.00;;;;;;482258;246;1061;-47
2021/12/19 01:37:59;;;;;;;;;;;21.80;32.90;;;;;;482325;246;1240;-46
2021/12/19 01:40:00;;;;;;;;;;;21.80;32.90;;;;;;482306;246;968;-47
2021/12/19 01:42:01;;;;;;;;;;;21.80;32.80;;;;;;482267;246;2197;-46
2021/12/19 01:44:02;;;;;;;;;;;21.80;32.80;;;;;;482324;246;1238;-47
2021/12/19 01:46:04;;;;;;;;;;;21.90;32.70;;;;;;482546;246;1423;-47
2021/12/19 01:48:05;;;;;;;;;;;21.90;32.70;;;;;;482548;246;1327;-47
2021/12/19 01:50:06;;;;;;;;;;;21.90;32.70;;;;;;482687;246;1057;-47
2021/12/19 01:52:08;;;;;;;;;;;21.90;32.70;;;;;;482676;246;1238;-46
2021/12/19 01:54:09;;;;;;;;;;;22.00;32.60;;;;;;482479;246;1139;-46
2021/12/19 01:56:10;;;;;;;;;;;22.00;32.60;;;;;;482238;246;1269;-47
2021/12/19 01:58:12;;;;;;;;;;;22.00;32.60;;;;;;482232;246;1095;-46
2021/12/19 02:00:13;;;;;;;;;;;22.00;32.60;;;;;;482281;246;999;-47
2021/12/19 02:02:14;;;;;;;;;;;22.00;32.60;;;;;;482216;246;2137;-47
2021/12/19 02:04:16;;;;;;;;;;;22.00;32.50;;;;;;482714;246;1071;-47
2021/12/19 02:06:17;;;;;;;;;;;22.00;32.50;;;;;;482251;246;1092;-47
2021/12/19 02:08:18;;;;;;;;;;;22.00;32.50;;;;;;482715;246;1090;-47
2021/12/19 02:10:20;;;;;;;;;;;22.10;32.50;;;;;;482300;246;1089;-47
2021/12/19 02:12:21;;;;;;;;;;;22.10;32.50;;;;;;482320;246;1190;-47
2021/12/19 02:14:22;;;;;;;;;;;22.10;32.50;;;;;;482279;246;1021;-46
2021/12/19 02:16:24;;;;;;;;;;;22.10;32.40;;;;;;482358;246;1484;-47
2021/12/19 02:18:25;;;;;;;;;;;22.10;32.40;;;;;;482286;246;1033;-47
2021/12/19 02:20:26;;;;;;;;;;;22.10;32.40;;;;;;482679;246;1432;-47
2021/12/19 02:22:27;;;;;;;;;;;22.20;32.40;;;;;;482520;246;2200;-46
2021/12/19 02:24:29;;;;;;;;;;;22.20;32.30;;;;;;482300;246;1062;-47
2021/12/19 02:26:30;;;;;;;;;;;22.20;32.30;;;;;;482214;246;1559;-46
2021/12/19 02:28:31;;;;;;;;;;;22.20;32.30;;;;;;482277;246;1170;-46
2021/12/19 02:30:33;;;;;;;;;;;22.20;32.30;;;;;;482263;246;1365;-47
2021/12/19 02:32:35;;;;;;;;;;;22.20;32.30;;;;;;482404;246;1214;-46
2021/12/19 02:34:41;;;;;;;;;;;22.20;32.30;;;;;;482286;247;2357;-47
2021/12/19 02:36:48;;;;;;;;;;;22.20;32.30;;;;;;482081;247;2010;-47
2021/12/19 02:50:19;;;;;;;;;;;22.30;32.20;;;;;;481963;247;1164;-46
2021/12/19 02:52:21;;;;;;;;;;;22.30;32.20;;;;;;482198;246;1114;-46
2021/12/19 02:54:22;;;;;;;;;;;22.30;32.20;;;;;;482456;246;1090;-46
2021/12/19 02:56:23;;;;;;;;;;;22.30;32.20;;;;;;482706;246;1391;-47
2021/12/19 02:58:25;;;;;;;;;;;22.30;32.20;;;;;;482591;246;1066;-46
2021/12/19 03:00:26;;;;;;;;;;;22.30;32.20;;;;;;482689;246;1034;-47
2021/12/19 03:02:27;;;;;;;;;;;22.40;32.20;;;;;;482373;243;2196;-47
2021/12/19 03:04:29;;;;;;;;;;;22.40;32.10;;;;;;482453;246;1067;-47
2021/12/19 03:06:30;;;;;;;;;;;22.30;32.10;;;;;;482682;246;1069;-47
2021/12/19 03:08:31;;;;;;;;;;;22.40;32.20;;;;;;482277;246;1064;-47
2021/12/19 03:11:06;;;;;;;;;;;22.40;32.20;;;;;;482393;246;1254;-46
2021/12/19 03:12:57;;;;;;;;;;;22.40;32.20;;;;;;481043;247;2177;-47
2021/12/19 03:19:25;;;;;;;;;;;22.40;32.10;;;;;;482284;247;1053;-47
2021/12/19 03:21:26;;;;;;;;;;;22.40;32.10;;;;;;482164;246;1392;-47
2021/12/19 03:23:27;;;;;;;;;;;22.40;32.10;;;;;;482733;246;2117;-46
2021/12/19 03:25:29;;;;;;;;;;;22.40;32.00;;;;;;482743;246;1068;-47
2021/12/19 03:27:30;;;;;;;;;;;22.40;32.00;;;;;;482384;246;1780;-47
2021/12/19 03:29:31;;;;;;;;;;;22.50;32.10;;;;;;482688;246;1053;-47
2021/12/19 03:31:33;;;;;;;;;;;22.50;32.10;;;;;;482209;246;1173;-46
2021/12/19 03:33:35;;;;;;;;;;;22.50;32.10;;;;;;482307;246;1226;-47
2021/12/19 03:35:36;;;;;;;;;;;22.50;32.10;;;;;;482405;246;1416;-47
2021/12/19 03:37:37;;;;;;;;;;;22.50;32.10;;;;;;482268;246;1226;-47
2021/12/19 03:39:55;;;;;;;;;;;22.50;32.10;;;;;;482305;246;1120;-47
2021/12/19 03:41:40;;;;;;;;;;;22.50;32.10;;;;;;481232;247;2214;-47
2021/12/19 03:43:41;;;;;;;;;;;22.50;32.10;;;;;;482655;246;2192;-47
2021/12/19 03:45:42;;;;;;;;;;;22.50;32.00;;;;;;482245;246;1029;-47
2021/12/19 03:47:44;;;;;;;;;;;22.50;32.00;;;;;;482532;246;1151;-47
2021/12/19 03:49:46;;;;;;;;;;;22.50;32.00;;;;;;482716;246;1217;-46
2021/12/19 03:51:47;;;;;;;;;;;22.60;32.10;;;;;;482229;247;1645;-46
2021/12/19 03:53:48;;;;;;;;;;;22.50;32.00;;;;;;482681;246;1076;-47
2021/12/19 03:55:50;;;;;;;;;;;22.50;32.00;;;;;;482201;246;1441;-46
2021/12/19 03:57:50;;;;;;;;;;;22.50;32.00;;;;;;482346;246;2247;-47
2021/12/19 03:59:52;;;;;;;;;;;22.50;32.00;;;;;;482326;246;1035;-47
2021/12/19 04:01:53;;;;;;;;;;;22.60;32.10;;;;;;482182;246;1326;-47
2021/12/19 04:03:55;;;;;;;;;;;22.60;32.10;;;;;;482216;246;2197;-47
2021/12/19 04:05:56;;;;;;;;;;;22.60;32.00;;;;;;482246;246;2598;-47
2021/12/19 04:07:57;;;;;;;;;;;22.60;32.00;;;;;;482721;246;1187;-47
2021/12/19 04:09:58;;;;;;;;;;;22.50;32.00;;;;;;482627;246;1065;-47
2021/12/19 04:12:00;;;;;;;;;;;22.50;32.10;;;;;;482380;246;1371;-47
2021/12/19 04:14:01;;;;;;;;;;;22.30;32.30;;;;;;482370;246;1200;-47
2021/12/19 04:16:03;;;;;;;;;;;22.10;32.60;;;;;;482151;246;1158;-47
2021/12/19 04:18:04;;;;;;;;;;;21.90;33.00;;;;;;482288;246;1240;-47
2021/12/19 04:20:06;;;;;;;;;;;21.80;33.20;;;;;;482287;246;1012;-46
2021/12/19 04:22:07;;;;;;;;;;;21.70;33.50;;;;;;482322;246;2123;-46
2021/12/19 04:24:08;;;;;;;;;;;21.50;33.70;;;;;;482554;246;1049;-46
2021/12/19 04:26:09;;;;;;;;;;;21.50;33.80;;;;;;482218;246;1318;-46
2021/12/19 04:28:11;;;;;;;;;;;21.40;33.80;;;;;;482275;246;1058;-47
2021/12/19 04:30:12;;;;;;;;;;;21.40;34.00;;;;;;482350;246;1165;-46
2021/12/19 04:32:14;;;;;;;;;;;21.30;34.00;;;;;;482438;246;1261;-46
2021/12/19 04:34:16;;;;;;;;;;;21.20;34.20;;;;;;482306;246;2290;-46
2021/12/19 04:36:23;;;;;;;;;;;21.20;34.30;;;;;;482337;247;2293;-46
2021/12/19 04:40:45;;;;;;;;;;;21.10;34.40;;;;;;482386;247;1098;-47
2021/12/19 04:52:35;;;;;;;;;;;21.00;34.60;;;;;;482131;247;1240;-46
2021/12/19 04:54:29;;;;;;;;;;;21.00;34.60;;;;;;481254;247;1385;-46
2021/12/19 04:56:37;;;;;;;;;;;21.00;34.60;;;;;;482109;247;2302;-46
2021/12/19 04:58:55;;;;;;;;;;;20.90;34.60;;;;;;481737;247;2249;-46
2021/12/19 05:01:01;;;;;;;;;;;20.90;34.70;;;;;;481798;247;2202;-47
2021/12/19 05:02:57;;;;;;;;;;;20.90;34.80;;;;;;481688;247;2212;-46
2021/12/19 05:05:22;;;;;;;;;;;20.90;34.80;;;;;;482180;247;2005;-46
2021/12/19 05:14:05;;;;;;;;;;;20.80;34.80;;;;;;482477;247;1287;-46
2021/12/19 05:14:08;;;;;;;;;;;20.90;34.80;;;;;;481174;247;1127;-46
2021/12/19 05:16:05;;;;;;;;;;;20.80;34.80;;;;;;481987;247;2171;-46
2021/12/19 05:18:09;;;;;;;;;;;20.80;34.80;;;;;;482387;246;1278;-46
2021/12/19 05:20:14;;;;;;;;;;;20.80;34.90;;;;;;482174;247;2215;-46
2021/12/19 05:22:11;;;;;;;;;;;20.80;34.90;;;;;;482088;247;1778;-47
2021/12/19 05:24:43;;;;;;;;;;;20.80;34.90;;;;;;482210;246;2129;-46
2021/12/19 05:26:23;;;;;;;;;;;20.80;34.90;;;;;;480844;247;1315;-46
2021/12/19 05:28:25;;;;;;;;;;;20.70;34.90;;;;;;482543;246;1026;-46
2021/12/19 05:30:27;;;;;;;;;;;20.70;34.90;;;;;;482203;247;1491;-46
2021/12/19 05:32:28;;;;;;;;;;;20.70;35.00;;;;;;482285;246;1398;-46
2021/12/19 05:34:30;;;;;;;;;;;20.70;35.00;;;;;;482363;246;1210;-46
2021/12/19 05:45:47;;;;;;;;;;;20.60;35.00;;;;;;482489;247;1110;-46
2021/12/19 05:47:49;;;;;;;;;;;20.60;35.00;;;;;;482479;246;1186;-46
2021/12/19 05:49:50;;;;;;;;;;;20.70;35.00;;;;;;482311;246;1206;-46
2021/12/19 05:51:51;;;;;;;;;;;20.60;35.00;;;;;;482368;246;1143;-46
2021/12/19 05:53:53;;;;;;;;;;;20.60;35.00;;;;;;482369;246;1127;-47
2021/12/19 05:55:55;;;;;;;;;;;20.60;35.00;;;;;;482609;246;1067;-46
2021/12/19 05:57:56;;;;;;;;;;;20.60;35.10;;;;;;482546;246;2386;-46
2021/12/19 05:59:56;;;;;;;;;;;20.60;35.20;;;;;;482280;246;2064;-46
2021/12/19 06:01:58;;;;;;;;;;;20.60;35.10;;;;;;482613;246;1327;-46
2021/12/19 06:03:59;;;;;;;;;;;20.60;35.10;;;;;;482546;246;2126;-46
2021/12/19 06:06:00;;;;;;;;;;;20.60;35.10;;;;;;482308;246;1123;-46
2021/12/19 06:08:02;;;;;;;;;;;20.60;35.10;;;;;;482300;246;1068;-46
2021/12/19 06:10:03;;;;;;;;;;;20.60;35.10;;;;;;482614;246;1266;-46
2021/12/19 06:12:04;;;;;;;;;;;20.60;35.10;;;;;;482401;246;1321;-46
2021/12/19 06:14:06;;;;;;;;;;;20.60;35.10;;;;;;482312;246;1055;-46
2021/12/19 06:16:08;;;;;;;;;;;20.50;35.10;;;;;;482543;246;1469;-46
2021/12/19 06:18:08;;;;;;;;;;;20.50;35.10;;;;;;482224;246;2422;-46
2021/12/19 06:20:10;;;;;;;;;;;20.50;35.20;;;;;;482400;246;1151;-46
2021/12/19 06:22:11;;;;;;;;;;;20.50;35.20;;;;;;482684;246;1147;-46
2021/12/19 06:24:12;;;;;;;;;;;20.50;35.10;;;;;;482619;246;2114;-46
2021/12/19 06:26:14;;;;;;;;;;;20.50;35.10;;;;;;482493;246;1213;-46
2021/12/19 06:28:15;;;;;;;;;;;20.50;35.10;;;;;;482637;246;1166;-46
2021/12/19 06:30:16;;;;;;;;;;;20.50;35.20;;;;;;482304;246;1229;-46
2021/12/19 06:32:18;;;;;;;;;;;20.50;35.20;;;;;;482294;246;1234;-46
2021/12/19 06:34:19;;;;;;;;;;;20.50;35.20;;;;;;482302;246;1575;-46
2021/12/19 06:36:20;;;;;;;;;;;20.50;35.30;;;;;;482635;246;1217;-46
2021/12/19 06:38:22;;;;;;;;;;;20.50;35.20;;;;;;482272;246;1138;-46
2021/12/19 06:40:23;;;;;;;;;;;20.40;35.10;;;;;;482251;246;1297;-46
2021/12/19 06:42:24;;;;;;;;;;;20.60;35.20;;;;;;482191;246;1210;-46
2021/12/19 06:44:26;;;;;;;;;;;20.50;35.00;;;;;;482699;246;2185;-46
2021/12/19 06:46:27;;;;;;;;;;;20.60;35.10;;;;;;482407;246;1229;-46
2021/12/19 06:48:28;;;;;;;;;;;20.50;35.00;;;;;;482269;246;1052;-46
2021/12/19 06:50:29;;;;;;;;;;;20.50;35.20;;;;;;482388;246;1159;-46
2021/12/19 06:52:31;;;;;;;;;;;20.40;35.10;;;;;;482283;246;1259;-46
2021/12/19 06:54:32;;;;;;;;;;;20.40;35.20;;;;;;482274;246;1040;-46
2021/12/19 06:56:34;;;;;;;;;;;20.40;35.20;;;;;;482701;246;1062;-46
2021/12/19 06:58:35;;;;;;;;;;;20.40;35.20;;;;;;482195;247;2107;-46
2021/12/19 07:00:36;;;;;;;;;;;20.40;35.20;;;;;;482696;246;1072;-46
2021/12/19 07:02:38;;;;;;;;;;;20.40;35.10;;;;;;482222;246;1331;-46
2021/12/19 07:04:39;;;;;;;;;;;20.40;35.20;;;;;;482244;246;2197;-46
2021/12/19 07:06:40;;;;;;;;;;;20.40;35.20;;;;;;482454;246;1358;-46
2021/12/19 07:08:42;;;;;;;;;;;20.40;35.10;;;;;;482741;246;1218;-46
2021/12/19 07:10:43;;;;;;;;;;;20.40;35.20;;;;;;482570;246;1303;-46
2021/12/19 07:12:44;;;;;;;;;;;20.40;35.10;;;;;;482213;246;1373;-46
2021/12/19 07:14:46;;;;;;;;;;;20.40;35.10;;;;;;482285;246;1111;-47
2021/12/19 07:16:47;;;;;;;;;;;20.40;35.10;;;;;;482372;246;1384;-46
2021/12/19 07:18:48;;;;;;;;;;;20.40;35.20;;;;;;482639;246;1126;-46
2021/12/19 07:20:50;;;;;;;;;;;20.40;35.30;;;;;;482360;246;1177;-46
2021/12/19 07:22:51;;;;;;;;;;;20.40;35.30;;;;;;482206;246;1203;-46
2021/12/19 07:24:52;;;;;;;;;;;20.40;35.30;;;;;;482278;246;2184;-46
2021/12/19 07:26:54;;;;;;;;;;;20.40;35.30;;;;;;482323;246;1214;-46
2021/12/19 07:28:56;;;;;;;;;;;20.30;35.20;;;;;;482411;246;1098;-46
2021/12/19 07:30:57;;;;;;;;;;;20.40;35.20;;;;;;482132;246;2504;-46
2021/12/19 07:32:58;;;;;;;;;;;20.30;35.20;;;;;;482446;246;1167;-46
2021/12/19 07:34:59;;;;;;;;;;;20.40;35.30;;;;;;482235;246;1144;-46
2021/12/19 07:37:01;;;;;;;;;;;20.40;35.30;;;;;;482264;246;1206;-46
2021/12/19 07:39:06;;;;;;;;;;;20.40;35.20;;;;;;482450;246;1044;-46
2021/12/19 07:41:04;;;;;;;;;;;20.40;35.20;;;;;;481913;247;1522;-46
2021/12/19 07:43:05;;;;;;;;;;;20.30;35.20;;;;;;482357;247;2413;-46
2021/12/19 07:45:06;;;;;;;;;;;20.30;35.20;;;;;;482258;246;2193;-47
2021/12/19 07:47:07;;;;;;;;;;;20.30;35.20;;;;;;482528;246;1150;-46
2021/12/19 07:49:09;;;;;;;;;;;20.30;35.20;;;;;;482330;246;1016;-46
2021/12/19 07:51:10;;;;;;;;;;;20.30;35.30;;;;;;482241;246;1358;-46
2021/12/19 07:53:11;;;;;;;;;;;20.30;35.30;;;;;;482727;246;1084;-46
2021/12/19 07:55:12;;;;;;;;;;;20.30;35.30;;;;;;482517;246;1087;-46
2021/12/19 07:57:14;;;;;;;;;;;20.30;35.30;;;;;;482231;246;1460;-46
2021/12/19 07:59:15;;;;;;;;;;;20.30;35.30;;;;;;482353;246;1118;-46
2021/12/19 08:01:16;;;;;;;;;;;20.30;35.30;;;;;;482140;246;1376;-46
2021/12/19 08:03:18;;;;;;;;;;;20.30;35.20;;;;;;482234;246;2133;-45
2021/12/19 08:05:19;;;;;;;;;;;20.30;35.20;;;;;;482555;246;1298;-46
2021/12/19 08:07:23;;;;;;;;;;;20.30;35.30;;;;;;482226;246;1290;-46
2021/12/19 08:09:34;;;;;;;;;;;20.30;35.20;;;;;;482144;247;2349;-46
2021/12/19 08:11:42;;;;;;;;;;;20.30;35.30;;;;;;481511;247;2094;-46
2021/12/19 08:13:43;;;;;;;;;;;20.30;35.20;;;;;;482295;246;1007;-46
2021/12/19 08:15:45;;;;;;;;;;;20.30;35.20;;;;;;482258;246;1326;-46
2021/12/19 08:17:46;;;;;;;;;;;20.30;35.30;;;;;;482281;246;1129;-46
2021/12/19 08:19:47;;;;;;;;;;;20.30;35.20;;;;;;482575;246;1232;-46
2021/12/19 08:21:49;;;;;;;;;;;20.30;35.20;;;;;;482192;246;1564;-46
2021/12/19 08:23:50;;;;;;;;;;;20.30;35.20;;;;;;482228;246;2189;-46
2021/12/19 08:25:51;;;;;;;;;;;20.30;35.20;;;;;;482224;246;1214;-46
2021/12/19 08:27:53;;;;;;;;;;;20.30;35.30;;;;;;482243;246;1207;-46
2021/12/19 08:29:55;;;;;;;;;;;20.30;35.30;;;;;;482327;246;1042;-46
2021/12/19 08:31:55;;;;;;;;;;;20.30;35.30;;;;;;482116;246;1985;-46
2021/12/19 08:33:58;;;;;;;;;;;20.30;35.20;;;;;;482283;246;1225;-45
2021/12/19 08:35:59;;;;;;;;;;;20.30;35.30;;;;;;482103;246;2307;-46
2021/12/19 08:37:59;;;;;;;;;;;20.30;35.30;;;;;;482145;246;1627;-46
2021/12/19 08:40:01;;;;;;;;;;;20.20;35.30;;;;;;482671;246;1126;-46
2021/12/19 08:42:02;;;;;;;;;;;20.30;35.30;;;;;;482257;246;1201;-46
2021/12/19 08:44:03;;;;;;;;;;;20.20;35.30;;;;;;482207;246;2184;-46
2021/12/19 08:46:06;;;;;;;;;;;20.20;35.30;;;;;;482507;246;1487;-46
2021/12/19 08:48:06;;;;;;;;;;;20.30;35.30;;;;;;482502;247;2808;-46
2021/12/19 08:50:07;;;;;;;;;;;20.20;35.20;;;;;;482218;246;1172;-46
2021/12/19 08:52:08;;;;;;;;;;;20.20;35.30;;;;;;482114;246;1848;-46
2021/12/19 08:54:10;;;;;;;;;;;20.20;35.30;;;;;;482256;246;1235;-46
2021/12/19 08:56:11;;;;;;;;;;;20.20;35.40;;;;;;482481;246;1183;-46
2021/12/19 08:58:12;;;;;;;;;;;20.20;35.40;;;;;;482430;246;1206;-46
2021/12/19 09:00:14;;;;;;;;;;;20.20;35.30;;;;;;482642;246;974;-46
2021/12/19 09:02:15;;;;;;;;;;;20.20;35.30;;;;;;482208;246;1177;-46
2021/12/19 09:04:16;;;;;;;;;;;20.20;35.30;;;;;;482709;246;2134;-46
2021/12/19 09:06:18;;;;;;;;;;;20.20;35.20;;;;;;482253;246;1304;-46
2021/12/19 09:08:19;;;;;;;;;;;20.30;35.30;;;;;;482532;246;1039;-46
2021/12/19 09:10:20;;;;;;;;;;;20.20;35.30;;;;;;482334;246;1029;-46
2021/12/19 09:12:22;;;;;;;;;;;20.20;35.30;;;;;;482144;246;1181;-47
2021/12/19 09:14:23;;;;;;;;;;;20.20;35.30;;;;;;482315;246;1274;-46
2021/12/19 09:16:24;;;;;;;;;;;20.20;35.30;;;;;;482332;246;1492;-47
2021/12/19 09:18:26;;;;;;;;;;;20.20;35.30;;;;;;482685;246;1068;-46
2021/12/19 09:20:27;;;;;;;;;;;20.20;35.30;;;;;;482268;246;1248;-46
2021/12/19 09:22:28;;;;;;;;;;;20.20;35.20;;;;;;482500;246;1196;-46
2021/12/19 09:24:30;;;;;;;;;;;20.50;34.90;;;;;;482187;246;2193;-46
2021/12/19 09:26:31;;;;;;;;;;;20.70;34.50;;;;;;482406;239;1171;-46
2021/12/19 09:28:32;;;;;;;;;;;20.90;34.20;;;;;;482390;246;1072;-46
2021/12/19 09:30:33;;;;;;;;;;;21.00;33.90;;;;;;482710;246;1050;-47
2021/12/19 09:32:35;;;;;;;;;;;21.20;33.80;;;;;;482495;246;1237;-46
2021/12/19 09:34:36;;;;;;;;;;;21.20;33.60;;;;;;482562;246;1041;-46
2021/12/19 09:36:37;;;;;;;;;;;21.30;33.50;;;;;;482349;246;1210;-47
2021/12/19 09:38:41;;;;;;;;;;;21.30;33.40;;;;;;482305;246;1117;-46
2021/12/19 09:40:42;;;;;;;;;;;21.30;33.30;;;;;;482137;246;1558;-46
2021/12/19 09:42:47;;;;;;;;;;;21.40;33.30;;;;;;482171;247;2222;-46
2021/12/19 09:44:43;;;;;;;;;;;21.40;33.10;;;;;;481922;247;2204;-46
2021/12/19 09:46:44;;;;;;;;;;;21.50;33.20;;;;;;482313;246;1631;-46
2021/12/19 09:48:45;;;;;;;;;;;21.50;33.10;;;;;;482286;246;1124;-47
2021/12/19 09:50:47;;;;;;;;;;;21.60;33.00;;;;;;482469;246;1361;-47
2021/12/19 09:52:49;;;;;;;;;;;21.60;33.00;;;;;;482212;246;1592;-47
2021/12/19 09:54:49;;;;;;;;;;;21.60;33.00;;;;;;482685;247;1600;-46
2021/12/19 09:56:51;;;;;;;;;;;21.60;32.90;;;;;;482462;246;1196;-46
2021/12/19 09:58:53;;;;;;;;;;;21.60;32.90;;;;;;482282;246;1313;-46
2021/12/19 10:00:53;;;;;;;;;;;21.70;32.80;;;;;;482194;247;2167;-47
2021/12/19 10:02:54;;;;;;;;;;;21.70;32.80;;;;;;482245;246;1301;-47
2021/12/19 10:04:56;;;;;;;;;;;21.80;32.80;;;;;;482285;246;2193;-47
2021/12/19 10:06:57;;;;;;;;;;;21.80;32.70;;;;;;482361;246;1216;-47
2021/12/19 10:08:58;;;;;;;;;;;21.80;32.60;;;;;;482540;246;1190;-47
2021/12/19 10:11:01;;;;;;;;;;;21.80;32.60;;;;;;482376;246;1487;-47
2021/12/19 10:13:01;;;;;;;;;;;21.90;32.60;;;;;;482280;247;2092;-46
2021/12/19 10:15:02;;;;;;;;;;;21.90;32.60;;;;;;482276;246;1068;-46
2021/12/19 10:17:04;;;;;;;;;;;21.90;32.60;;;;;;482133;239;1272;-46
2021/12/19 10:19:05;;;;;;;;;;;21.90;32.60;;;;;;482361;246;1085;-47
2021/12/19 10:21:06;;;;;;;;;;;21.90;32.50;;;;;;482209;246;1343;-47
2021/12/19 10:23:08;;;;;;;;;;;22.00;32.50;;;;;;482566;246;1053;-47
2021/12/19 10:25:09;;;;;;;;;;;22.00;32.40;;;;;;482288;246;2125;-46
2021/12/19 10:27:10;;;;;;;;;;;22.00;32.50;;;;;;482409;246;1216;-46
2021/12/19 10:29:12;;;;;;;;;;;22.00;32.40;;;;;;482278;246;1062;-47
2021/12/19 10:31:13;;;;;;;;;;;22.00;32.30;;;;;;482268;246;1190;-47
2021/12/19 10:33:14;;;;;;;;;;;22.00;32.30;;;;;;482471;246;1082;-47
2021/12/19 10:35:16;;;;;;;;;;;22.10;32.40;;;;;;482711;246;1067;-46
2021/12/19 10:37:17;;;;;;;;;;;22.10;32.30;;;;;;482357;246;1200;-47
2021/12/19 10:39:19;;;;;;;;;;;22.10;32.30;;;;;;482255;246;1231;-47
2021/12/19 10:41:20;;;;;;;;;;;22.20;32.40;;;;;;482208;246;2321;-46
2021/12/19 10:43:21;;;;;;;;;;;22.10;32.20;;;;;;482397;246;1197;-47
2021/12/19 10:45:35;;;;;;;;;;;22.10;32.20;;;;;;482613;246;2136;-47
2021/12/19 10:47:36;;;;;;;;;;;22.20;32.20;;;;;;482188;246;1234;-46
2021/12/19 10:49:37;;;;;;;;;;;22.10;32.20;;;;;;482710;246;1106;-47
2021/12/19 10:51:39;;;;;;;;;;;22.20;32.20;;;;;;482289;246;1173;-47
2021/12/19 10:53:40;;;;;;;;;;;22.20;32.20;;;;;;482396;246;1234;-47
2021/12/19 10:55:41;;;;;;;;;;;22.20;32.20;;;;;;482707;246;1090;-47
2021/12/19 10:57:43;;;;;;;;;;;22.20;32.20;;;;;;482414;246;1132;-46
2021/12/19 10:59:44;;;;;;;;;;;22.20;32.20;;;;;;482528;246;969;-47
2021/12/19 11:01:45;;;;;;;;;;;22.20;32.20;;;;;;482363;246;1248;-47
2021/12/19 11:03:47;;;;;;;;;;;22.20;32.10;;;;;;482295;246;1105;-47
2021/12/19 11:05:48;;;;;;;;;;;22.30;32.20;;;;;;482538;246;2253;-46
2021/12/19 11:07:49;;;;;;;;;;;22.20;32.10;;;;;;482432;246;1366;-47
2021/12/19 11:09:51;;;;;;;;;;;22.30;32.20;;;;;;482554;246;998;-47
2021/12/19 11:11:52;;;;;;;;;;;22.30;32.10;;;;;;482567;246;1140;-46
2021/12/19 11:13:53;;;;;;;;;;;22.30;32.10;;;;;;482357;246;1040;-47
2021/12/19 11:15:55;;;;;;;;;;;22.30;32.10;;;;;;482414;246;1291;-47
2021/12/19 11:17:56;;;;;;;;;;;22.30;32.10;;;;;;482276;246;1036;-47
2021/12/19 11:19:57;;;;;;;;;;;22.30;32.10;;;;;;482262;246;1188;-46
2021/12/19 11:21:58;;;;;;;;;;;22.30;32.10;;;;;;482248;246;1175;-47
2021/12/19 11:24:00;;;;;;;;;;;22.30;32.10;;;;;;482773;246;1075;-47
2021/12/19 11:26:01;;;;;;;;;;;22.30;32.10;;;;;;482401;246;2203;-47
2021/12/19 11:28:02;;;;;;;;;;;22.30;32.10;;;;;;482250;246;1214;-47
2021/12/19 11:30:04;;;;;;;;;;;22.30;32.10;;;;;;482242;246;1099;-46
2021/12/19 11:32:07;;;;;;;;;;;22.30;32.10;;;;;;482369;246;1054;-47
2021/12/19 11:34:06;;;;;;;;;;;22.40;32.10;;;;;;482117;247;2367;-47
2021/12/19 11:36:08;;;;;;;;;;;22.40;32.00;;;;;;482704;243;1162;-47
2021/12/19 11:38:09;;;;;;;;;;;22.40;32.00;;;;;;482419;246;1186;-47
2021/12/19 11:40:10;;;;;;;;;;;22.40;32.00;;;;;;482308;246;1269;-47
2021/12/19 11:42:12;;;;;;;;;;;22.40;32.00;;;;;;482168;246;1055;-47
2021/12/19 11:44:13;;;;;;;;;;;22.40;32.00;;;;;;482258;246;1059;-47
2021/12/19 11:46:20;;;;;;;;;;;22.40;32.00;;;;;;482142;246;2122;-47
2021/12/19 11:48:18;;;;;;;;;;;22.40;32.00;;;;;;482319;247;2137;-47
2021/12/19 11:50:21;;;;;;;;;;;22.50;32.00;;;;;;482245;247;2208;-47
2021/12/19 11:52:20;;;;;;;;;;;22.50;31.90;;;;;;482359;247;2067;-46
2021/12/19 11:54:21;;;;;;;;;;;22.50;32.00;;;;;;482512;246;1099;-47
2021/12/19 11:56:22;;;;;;;;;;;22.50;32.00;;;;;;482172;246;1409;-46
2021/12/19 11:58:24;;;;;;;;;;;22.50;31.90;;;;;;482455;246;994;-47
2021/12/19 12:00:25;;;;;;;;;;;22.50;32.00;;;;;;482250;246;1367;-46
2021/12/19 12:02:26;;;;;;;;;;;22.50;31.90;;;;;;482499;246;1230;-47
2021/12/19 12:04:30;;;;;;;;;;;22.50;31.90;;;;;;482509;246;1045;-47
2021/12/19 12:06:31;;;;;;;;;;;22.50;31.90;;;;;;482108;247;2196;-46
2021/12/19 12:08:30;;;;;;;;;;;22.50;31.90;;;;;;482212;246;2145;-47
2021/12/19 12:10:32;;;;;;;;;;;22.50;31.80;;;;;;482713;246;1075;-47
2021/12/19 12:12:36;;;;;;;;;;;22.50;31.90;;;;;;482345;246;1213;-46
2021/12/19 12:14:36;;;;;;;;;;;22.50;31.90;;;;;;482116;247;2332;-46
2021/12/19 12:16:42;;;;;;;;;;;22.50;31.80;;;;;;482625;247;2255;-47
2021/12/19 12:18:39;;;;;;;;;;;22.60;31.90;;;;;;482020;247;2438;-46
2021/12/19 12:20:40;;;;;;;;;;;22.50;31.80;;;;;;482657;246;1098;-46
2021/12/19 12:22:45;;;;;;;;;;;22.60;31.90;;;;;;482115;246;1278;-46
2021/12/19 12:24:43;;;;;;;;;;;22.60;31.90;;;;;;482041;247;2353;-47
2021/12/19 12:26:47;;;;;;;;;;;22.60;31.90;;;;;;482137;246;2192;-47
2021/12/19 12:28:45;;;;;;;;;;;22.60;31.90;;;;;;482065;247;2329;-47
2021/12/19 12:30:47;;;;;;;;;;;22.60;31.90;;;;;;482243;246;1281;-47
2021/12/19 12:32:48;;;;;;;;;;;22.60;31.90;;;;;;482163;246;1315;-47
2021/12/19 12:34:49;;;;;;;;;;;22.60;31.90;;;;;;482705;246;1037;-46
2021/12/19 12:36:51;;;;;;;;;;;22.60;31.90;;;;;;482166;246;1615;-46
2021/12/19 12:38:53;;;;;;;;;;;22.60;31.90;;;;;;482374;246;1176;-47
2021/12/19 12:40:57;;;;;;;;;;;22.60;31.90;;;;;;482327;246;1170;-47
2021/12/19 12:42:56;;;;;;;;;;;22.60;31.90;;;;;;482064;247;1908;-47